Flight Track Log - Related Links

Times and Time Zones

All times are in EDT time to prevent confusion due to time zone crossing. See the XSR387 flight status page for this flight to view local times or setup timezone preferences in your user account.

Time Position Orientation Groundspeed Altitude Reporting Facility
EDT Latitude Longitude Course Direction KTS MPH feet Rate Location/Type
Mon 02:31:10 PM 32.8833 -96.8667 337° Northwest 144 166 1,600  Level Dallas / Fort Worth TRACON
Mon 02:32:10 PM 32.9167 -96.8833 337° Northwest 150 173 3,100 1,150 Climbing Dallas / Fort Worth TRACON
Mon 02:33:10 PM 32.9667 -96.8833 360° North 171 197 3,900 450 Climbing Dallas / Fort Worth TRACON
Mon 02:34:10 PM 33.0167 -96.8667 16° North 207 238 4,000 148 Climbing Dallas / Fort Worth TRACON
Mon 02:35:52 PM 33.1119 -96.8703 358° North 216 249 4,300 811 Climbing Fort Worth Center
Mon 02:37:52 PM 33.2058 -96.8597 North 166 191 7,000 1,300 Climbing Fort Worth Center
Mon 02:38:52 PM 33.2456 -96.8547 North 161 185 8,200 1,200 Climbing Fort Worth Center
Mon 02:39:52 PM 33.2933 -96.8444 10° North 161 185 9,400 600 Climbing Fort Worth Center
Mon 02:41:00 PM 33.3313 -96.7837 53° Northeast  Level FlightAware Approximate
Mon 02:41:52 PM 33.3978 -96.8336 53° Northeast 185 213 10,000  Level Fort Worth Center
Mon 02:42:52 PM 33.4542 -96.8208 11° North 214 246 10,000 250 Level Fort Worth Center
Mon 02:43:52 PM 33.5167 -96.7956 19° North 224 258 10,500 750 Climbing Fort Worth Center
Mon 02:45:00 PM 33.5794 -96.7841 North  Level FlightAware Approximate
Mon 02:48:52 PM 33.7728 -96.7139 15° North 181 208 14,500  Level Fort Worth Center
Mon 02:49:52 PM 33.8269 -96.6983 13° North 181 208 15,500 900 Climbing Fort Worth Center
Mon 02:50:52 PM 33.8728 -96.6856 13° North 175 201 16,300 750 Climbing Fort Worth Center
Mon 02:51:52 PM 33.9186 -96.6725 13° North 175 201 17,000 229 Climbing Fort Worth Center
Mon 02:52:00 PM 33.9571 -96.6605 15° North  Level FlightAware Approximate
Mon 02:53:00 PM 34.0111 -96.6430 15° North  Level FlightAware Approximate
Mon 02:54:00 PM 34.0651 -96.6254 15° North  Level FlightAware Approximate
Mon 02:54:00 PM 34.0113 -96.6425 15° North  Level FlightAware Approximate
Mon 02:54:22 PM 34.0533 -96.6247 15° North 218 251 17,100  Level Kansas City Center
Mon 02:54:52 PM 34.0894 -96.6186 North 207 238 17,100  Level Fort Worth Center
Mon 02:56:26 PM 34.1881 -96.5842 16° North 227 261 17,100  Level Kansas City Center
Mon 02:58:00 PM 34.2717 -96.5572 15° North  Level FlightAware Approximate
Mon 02:58:52 PM 34.3353 -96.5433 15° North 219 252 17,100  Level Fort Worth Center
Mon 03:00:52 PM 34.4581 -96.5017 16° North 219 252 17,000 -33 Descending Fort Worth Center
Mon 03:01:52 PM 34.5206 -96.4808 15° North 219 252 17,000 26 Level Fort Worth Center
Mon 03:04:00 PM 34.5948 -96.4541 16° North  Level FlightAware Approximate
Mon 03:04:41 PM 34.6928 -96.4244 16° North 228 262 17,100  Level Kansas City Center
Mon 03:05:43 PM 34.7550 -96.4081 12° North 229 264 17,100  Level Kansas City Center
Mon 03:06:45 PM 34.8142 -96.3894 14° North 224 258 17,100  Level Kansas City Center
Mon 03:08:49 PM 34.9483 -96.3428 16° North 228 262 17,100 -24 Level Kansas City Center
Mon 03:10:53 PM 35.0689 -96.3031 15° North 227 261 17,000 -419 Descending Kansas City Center
Mon 03:11:55 PM 35.1339 -96.2814 15° North 238 274 15,800 -1,290 Descending Kansas City Center
Mon 03:13:59 PM 35.2831 -96.2367 14° North 249 287 13,000 -1,322 Descending Kansas City Center
Mon 03:14:52 PM 35.3358 -96.2200 14° North 238 274 11,900 -1,221 Descending Fort Worth Center
Mon 03:15:52 PM 35.4003 -96.1989 15° North 238 274 10,700 -1,046 Descending Fort Worth Center
Mon 03:18:07 PM 35.5372 -96.1542 15° North 235 270 8,500 -975 Descending Kansas City Center
Mon 03:19:09 PM 35.5983 -96.1333 15° North 231 266 7,500 -1,065 Descending Kansas City Center
Mon 03:21:00 PM 35.6975 -96.0897 15° North  Level FlightAware Approximate
Mon 03:22:15 PM 35.7853 -96.0692 15° North 218 251 4,100  Level Kansas City Center
Mon 03:23:05 PM 35.8314 -96.0497 19° North 199 229 3,200 -569 Descending Kansas City Center
Mon 03:24:11 PM 35.8786 -96.0358 13° North 147 169 3,000 -99 Descending Kansas City Center
Mon 03:25:06 PM 35.9089 -96.0244 17° North 115 132 3,000  Level Kansas City Center
Mon 03:25:21 PM 35.9122 -96.0222 28° Northeast 129 148 3,000 -595 Level Kansas City Center
Mon 03:27:07 PM 35.9767 -96.0053 12° North 129 148 1,800 -610 Descending Kansas City Center
Mon 03:28:28 PM 36.0222 -95.9908 14° North 125 144 1,100 -519 Descending Kansas City Center

Login

Don't have an account? Register now (free) for customized features, flight alerts, and more!